Time;durP1;ratioP1;P1;durP2;ratioP2;P2;SDS_P1;SDS_P2;PMS_P1;PMS_P2;Temp;Humidity;BMP_temperature;BMP_pressure;BME280_temperature;BME280_humidity;BME280_pressure;Samples;Min_cycle;Max_cycle;Signal;HPM_P1;HPM_P2
2023/05/11 00:01:47;;;;;;;16.80;12.00;;;;;;;13.70;100.00;100641.80;107481;1253;60207;-68
2023/05/11 00:04:13;;;;;;;16.70;12.40;;;;;;;13.70;100.00;100644.17;108647;1254;59094;-67
2023/05/11 00:06:40;;;;;;;16.60;12.30;;;;;;;13.70;100.00;100642.58;107736;1254;62074;-68
2023/05/11 00:09:08;;;;;;;16.40;12.60;;;;;;;13.71;100.00;100643.04;107728;1254;59629;-68
2023/05/11 00:11:35;;;;;;;17.90;13.40;;;;;;;13.70;100.00;100642.08;107464;1254;72847;-69
2023/05/11 00:14:01;;;;;;;18.10;13.60;;;;;;;13.69;100.00;100643.69;108118;1253;72847;-69
2023/05/11 00:16:28;;;;;;;16.30;12.90;;;;;;;13.68;100.00;100644.91;107695;1253;60861;-67
2023/05/11 00:18:55;;;;;;;17.70;13.10;;;;;;;13.69;100.00;100643.69;107950;1253;59665;-67
2023/05/11 00:21:21;;;;;;;16.90;13.00;;;;;;;13.69;100.00;100642.91;108356;1253;71829;-68
2023/05/11 00:23:48;;;;;;;17.40;13.80;;;;;;;13.70;100.00;100642.79;108095;1253;71267;-67
2023/05/11 00:26:15;;;;;;;20.70;15.00;;;;;;;13.70;100.00;100641.96;107662;1256;72001;-68
2023/05/11 00:28:41;;;;;;;19.60;14.60;;;;;;;13.67;100.00;100640.81;107187;1253;61326;-68
2023/05/11 00:31:08;;;;;;;18.90;14.40;;;;;;;13.63;100.00;100642.18;107205;1253;60490;-69
2023/05/11 00:33:35;;;;;;;20.10;15.10;;;;;;;13.62;100.00;100637.34;108187;1254;60929;-66
2023/05/11 00:36:02;;;;;;;20.20;14.50;;;;;;;13.62;100.00;100639.98;107864;1253;60890;-67
2023/05/11 00:38:29;;;;;;;21.10;15.10;;;;;;;13.61;100.00;100640.35;107794;1253;71458;-68
2023/05/11 00:40:56;;;;;;;22.30;15.60;;;;;;;13.59;100.00;100638.95;107780;1253;60571;-67
2023/05/11 00:43:22;;;;;;;21.80;16.20;;;;;;;13.59;100.00;100642.77;108250;1253;60054;-67
2023/05/11 00:45:51;;;;;;;22.70;15.90;;;;;;;13.59;100.00;100642.06;107323;1254;71908;-68
2023/05/11 00:48:17;;;;;;;19.80;14.50;;;;;;;13.59;100.00;100638.63;107314;1253;68962;-67
2023/05/11 00:50:45;;;;;;;21.40;15.20;;;;;;;13.59;100.00;100641.49;107516;1253;71484;-66
2023/05/11 00:53:12;;;;;;;20.20;16.10;;;;;;;13.58;100.00;100642.10;107977;1253;60474;-67
2023/05/11 00:55:39;;;;;;;20.30;15.40;;;;;;;13.58;100.00;100640.91;107737;1257;60361;-67
2023/05/11 00:58:05;;;;;;;20.70;14.80;;;;;;;13.57;100.00;100643.65;107610;1255;73716;-69
2023/05/11 01:00:32;;;;;;;19.00;14.40;;;;;;;13.57;100.00;100643.94;108812;1253;58621;-67
2023/05/11 01:03:00;;;;;;;20.50;15.10;;;;;;;13.56;100.00;100644.39;107423;1254;71466;-69
2023/05/11 01:05:35;;;;;;;23.00;15.30;;;;;;;13.55;100.00;100643.48;107563;1253;61767;-69
2023/05/11 01:08:14;;;;;;;19.60;15.00;;;;;;;13.54;100.00;100645.69;107511;1253;60357;-68
2023/05/11 01:10:52;;;;;;;22.40;14.80;;;;;;;13.55;100.00;100643.45;107817;1253;71354;-68
2023/05/11 01:13:31;;;;;;;20.50;14.60;;;;;;;13.56;100.00;100647.20;107933;1254;69647;-68
2023/05/11 01:16:03;;;;;;;19.10;14.60;;;;;;;13.55;100.00;100643.98;107655;1253;72569;-67
2023/05/11 01:18:35;;;;;;;20.00;14.90;;;;;;;13.53;100.00;100648.35;108078;1253;60763;-67
2023/05/11 01:21:04;;;;;;;19.20;14.90;;;;;;;13.50;100.00;100645.70;108494;1253;59260;-67
2023/05/11 01:23:48;;;;;;;20.60;15.30;;;;;;;13.49;100.00;100642.83;107198;1253;73252;-67
2023/05/11 01:26:46;;;;;;;19.90;14.80;;;;;;;13.49;100.00;100645.62;107343;1253;71337;-67
2023/05/11 01:29:47;;;;;;;20.40;15.60;;;;;;;13.45;100.00;100643.71;107429;1253;71448;-68
2023/05/11 01:32:26;;;;;;;19.50;15.00;;;;;;;13.43;100.00;100645.74;107557;1254;61726;-66
2023/05/11 01:35:10;;;;;;;20.00;15.00;;;;;;;13.41;100.00;100644.05;108258;1253;60422;-67
2023/05/11 01:37:43;;;;;;;19.90;15.10;;;;;;;13.39;100.00;100647.36;108285;1253;74820;-66
2023/05/11 01:40:14;;;;;;;20.50;14.50;;;;;;;13.39;100.00;100646.73;107824;1253;70955;-67
2023/05/11 01:42:48;;;;;;;20.20;15.10;;;;;;;13.39;100.00;100648.17;108008;1253;73142;-68
2023/05/11 01:45:16;;;;;;;18.80;14.80;;;;;;;13.38;100.00;100646.77;107147;1254;60728;-68
2023/05/11 01:47:45;;;;;;;19.90;14.30;;;;;;;13.38;100.00;100646.31;108261;1253;59696;-67
2023/05/11 01:50:14;;;;;;;19.40;14.40;;;;;;;13.38;100.00;100647.48;107567;1253;72843;-68
2023/05/11 01:52:42;;;;;;;19.90;15.40;;;;;;;13.39;100.00;100649.86;108372;1253;69959;-68
2023/05/11 01:55:11;;;;;;;18.20;13.90;;;;;;;13.40;100.00;100649.75;107392;1253;72670;-68
2023/05/11 01:57:38;;;;;;;18.50;13.70;;;;;;;13.41;100.00;100648.68;107943;1253;61248;-69
2023/05/11 02:00:07;;;;;;;17.20;13.50;;;;;;;13.41;100.00;100648.41;108038;1253;59351;-68
2023/05/11 02:02:35;;;;;;;17.70;12.70;;;;;;;13.40;100.00;100650.27;107280;1253;73340;-68
2023/05/11 02:05:04;;;;;;;17.10;12.30;;;;;;;13.39;100.00;100652.55;107337;1253;71307;-68
2023/05/11 02:07:34;;;;;;;15.40;12.20;;;;;;;13.37;100.00;100653.37;108214;1253;71125;-68
2023/05/11 02:10:01;;;;;;;15.90;12.40;;;;;;;13.35;100.00;100650.97;107121;1253;61704;-67
2023/05/11 02:12:30;;;;;;;16.10;12.70;;;;;;;13.34;100.00;100654.05;108437;1253;60549;-67
2023/05/11 02:14:57;;;;;;;15.00;12.10;;;;;;;13.33;100.00;100652.27;107642;1253;73996;-67
2023/05/11 02:17:24;;;;;;;15.90;12.10;;;;;;;13.32;100.00;100654.02;108552;1253;71392;-67
2023/05/11 02:19:54;;;;;;;17.30;12.30;;;;;;;13.31;100.00;100651.06;107768;1253;71482;-66
2023/05/11 02:22:23;;;;;;;15.80;12.10;;;;;;;13.31;100.00;100656.81;107514;1253;60775;-67
2023/05/11 02:24:49;;;;;;;16.10;12.00;;;;;;;13.30;100.00;100653.91;108132;1255;60455;-67
2023/05/11 02:27:16;;;;;;;15.80;12.70;;;;;;;13.28;100.00;100654.79;107601;1253;60944;-68
2023/05/11 02:29:42;;;;;;;15.40;11.80;;;;;;;13.27;100.00;100657.20;107988;1253;71452;-67
2023/05/11 02:32:16;;;;;;;14.80;12.40;;;;;;;13.26;100.00;100657.23;107051;1253;60432;-68
2023/05/11 02:34:48;;;;;;;14.70;11.90;;;;;;;13.25;100.00;100661.82;108047;1253;61710;-66
2023/05/11 02:37:23;;;;;;;16.70;12.80;;;;;;;13.23;100.00;100658.08;108641;1254;59606;-68
2023/05/11 02:40:02;;;;;;;15.70;12.40;;;;;;;13.22;100.00;100658.64;107954;1253;74878;-66
2023/05/11 02:42:34;;;;;;;16.90;13.10;;;;;;;13.21;100.00;100660.34;107694;1255;70617;-67
2023/05/11 02:45:03;;;;;;;16.90;13.50;;;;;;;13.19;100.00;100660.75;107394;1254;71746;-66
2023/05/11 02:47:35;;;;;;;15.70;12.50;;;;;;;13.19;100.00;100659.71;107507;1253;61784;-67
2023/05/11 02:50:03;;;;;;;15.70;13.20;;;;;;;13.16;100.00;100657.20;107907;1253;60413;-67
2023/05/11 02:52:31;;;;;;;18.00;13.10;;;;;;;13.15;100.00;100658.66;107059;1254;73898;-67
2023/05/11 02:55:00;;;;;;;16.40;12.40;;;;;;;13.13;100.00;100657.05;108126;1253;69162;-67
2023/05/11 02:57:26;;;;;;;15.50;12.30;;;;;;;13.10;100.00;100656.66;108496;1253;72377;-67
2023/05/11 02:59:54;;;;;;;14.70;12.00;;;;;;;13.05;100.00;100653.78;107476;1253;62228;-67
2023/05/11 03:02:21;;;;;;;15.70;12.10;;;;;;;13.03;100.00;100657.70;107289;1255;60311;-67
2023/05/11 03:04:47;;;;;;;14.10;12.00;;;;;;;13.02;100.00;100659.05;107439;1254;73728;-66
2023/05/11 03:07:14;;;;;;;16.10;11.30;;;;;;;13.01;100.00;100659.20;108168;1253;59113;-68
2023/05/11 03:09:41;;;;;;;13.60;11.20;;;;;;;13.00;100.00;100658.13;107272;1253;72604;-66
2023/05/11 03:12:08;;;;;;;13.20;11.00;;;;;;;12.96;100.00;100660.39;107882;1253;61736;-67
2023/05/11 03:14:37;;;;;;;12.60;10.80;;;;;;;12.92;100.00;100663.67;108095;1253;60463;-68
2023/05/11 03:17:05;;;;;;;13.10;11.30;;;;;;;12.92;100.00;100662.73;108760;1253;73823;-67
2023/05/11 03:19:32;;;;;;;12.70;10.70;;;;;;;12.90;100.00;100663.08;107432;1254;69687;-67
2023/05/11 03:21:59;;;;;;;13.40;11.10;;;;;;;12.92;100.00;100663.96;107570;1255;71409;-68
2023/05/11 03:24:26;;;;;;;12.10;10.60;;;;;;;12.92;100.00;100665.91;107994;1253;60756;-68
2023/05/11 03:26:54;;;;;;;16.20;11.40;;;;;;;12.92;100.00;100661.86;107302;1253;60409;-67
2023/05/11 03:29:23;;;;;;;12.90;11.20;;;;;;;12.92;100.00;100663.88;108004;1253;72848;-67
2023/05/11 03:31:50;;;;;;;12.20;10.50;;;;;;;12.94;100.00;100665.29;107144;1253;70402;-67
2023/05/11 03:34:17;;;;;;;13.10;10.70;;;;;;;12.94;100.00;100661.33;107635;1253;71407;-67
2023/05/11 03:36:49;;;;;;;12.40;10.30;;;;;;;12.95;100.00;100661.94;108234;1253;59305;-67
2023/05/11 03:39:17;;;;;;;14.20;10.60;;;;;;;12.95;100.00;100660.91;107397;1253;60380;-68
2023/05/11 03:41:49;;;;;;;12.10;10.50;;;;;;;12.95;100.00;100660.66;108279;1253;71539;-67
2023/05/11 03:44:19;;;;;;;13.20;11.00;;;;;;;12.96;100.00;100659.48;107170;1253;69515;-68
2023/05/11 03:46:47;;;;;;;13.00;10.60;;;;;;;12.97;100.00;100657.82;107895;1253;73093;-67
2023/05/11 03:49:16;;;;;;;13.10;10.80;;;;;;;12.97;100.00;100656.83;107787;1253;60635;-67
2023/05/11 03:51:44;;;;;;;11.40;10.00;;;;;;;12.98;100.00;100659.25;107647;1253;60547;-68
2023/05/11 03:54:10;;;;;;;13.00;10.70;;;;;;;12.98;100.00;100656.79;108337;1253;73812;-67
2023/05/11 03:56:39;;;;;;;13.00;10.40;;;;;;;12.97;100.00;100654.79;107703;1253;60480;-67
2023/05/11 03:59:07;;;;;;;12.80;10.50;;;;;;;12.97;100.00;100650.52;108375;1253;71014;-66
2023/05/11 04:01:34;;;;;;;12.30;10.90;;;;;;;12.97;100.00;100654.30;107305;1253;62560;-68
2023/05/11 04:04:00;;;;;;;11.80;9.70;;;;;;;12.97;100.00;100650.98;107809;1253;60246;-66
2023/05/11 04:06:27;;;;;;;11.70;10.40;;;;;;;12.98;100.00;100653.72;107624;1253;72390;-66
2023/05/11 04:08:53;;;;;;;12.50;10.50;;;;;;;12.98;100.00;100656.35;108403;1253;71736;-69
2023/05/11 04:11:21;;;;;;;11.00;9.70;;;;;;;13.00;100.00;100653.37;107584;1253;60444;-67
2023/05/11 04:13:47;;;;;;;11.30;9.90;;;;;;;13.01;100.00;100655.52;107851;1253;62088;-67
2023/05/11 04:16:13;;;;;;;13.20;10.30;;;;;;;13.03;100.00;100655.95;107366;1257;60848;-65
2023/05/11 04:18:40;;;;;;;10.50;9.40;;;;;;;13.04;100.00;100657.19;107283;1254;60415;-66
2023/05/11 04:21:06;;;;;;;11.00;9.60;;;;;;;13.06;100.00;100656.46;106627;1253;60591;-66
2023/05/11 04:23:33;;;;;;;11.30;9.60;;;;;;;13.09;100.00;100656.16;107655;1253;60365;-67
2023/05/11 04:25:59;;;;;;;11.40;9.40;;;;;;;13.11;100.00;100657.65;106648;1253;60502;-67
2023/05/11 04:28:29;;;;;;;11.90;10.10;;;;;;;13.14;100.00;100654.40;107620;1253;59238;-66
2023/05/11 04:30:56;;;;;;;12.30;9.60;;;;;;;13.17;100.00;100657.57;108054;1253;73562;-67
2023/05/11 04:33:23;;;;;;;10.40;9.30;;;;;;;13.20;100.00;100656.53;107572;1253;69644;-67
2023/05/11 04:35:52;;;;;;;10.10;9.00;;;;;;;13.23;100.00;100656.27;106981;1256;71647;-66
2023/05/11 04:38:19;;;;;;;10.90;8.80;;;;;;;13.26;100.00;100657.40;106583;1253;60703;-72
2023/05/11 04:40:47;;;;;;;10.70;9.50;;;;;;;13.26;100.00;100660.23;106787;1254;60763;-68
2023/05/11 04:43:14;;;;;;;10.90;8.70;;;;;;;13.25;100.00;100659.57;107365;1253;74813;-70
2023/05/11 04:45:40;;;;;;;10.10;8.50;;;;;;;13.27;100.00;100661.30;108101;1253;69892;-69
2023/05/11 04:48:07;;;;;;;9.80;8.80;;;;;;;13.30;100.00;100660.45;108113;1253;60532;-69
2023/05/11 04:50:35;;;;;;;9.60;8.60;;;;;;;13.31;100.00;100661.43;106206;1253;60892;-69
2023/05/11 04:53:02;;;;;;;11.40;10.10;;;;;;;13.34;100.00;100663.55;107275;1253;60324;-69
2023/05/11 04:55:29;;;;;;;10.00;9.00;;;;;;;13.36;100.00;100666.40;107043;1259;71713;-68
2023/05/11 04:57:56;;;;;;;10.50;9.00;;;;;;;13.41;100.00;100668.23;106689;1254;60502;-69
2023/05/11 05:00:23;;;;;;;8.90;7.60;;;;;;;13.47;100.00;100665.98;106379;1253;71703;-68
2023/05/11 05:02:50;;;;;;;9.40;8.30;;;;;;;13.50;100.00;100668.64;107826;1253;60615;-70
2023/05/11 05:05:17;;;;;;;9.10;8.00;;;;;;;13.52;100.00;100671.39;107994;1253;60442;-70
2023/05/11 05:07:44;;;;;;;10.60;8.60;;;;;;;13.52;100.00;100673.36;106900;1257;72938;-70
2023/05/11 05:10:11;;;;;;;9.60;8.40;;;;;;;13.53;100.00;100674.05;106485;1253;69722;-70
2023/05/11 05:12:38;;;;;;;9.40;8.10;;;;;;;13.55;100.00;100677.52;107236;1253;71517;-72
2023/05/11 05:15:07;;;;;;;10.30;8.60;;;;;;;13.58;100.00;100675.23;106590;1253;62041;-68
2023/05/11 05:17:33;;;;;;;9.60;8.60;;;;;;;13.61;100.00;100677.51;106300;1253;60604;-67
2023/05/11 05:20:00;;;;;;;9.80;8.60;;;;;;;13.62;100.00;100678.25;107730;1256;74097;-70
2023/05/11 05:22:27;;;;;;;10.70;8.80;;;;;;;13.62;100.00;100677.52;107861;1253;71170;-68
2023/05/11 05:24:53;;;;;;;11.10;8.80;;;;;;;13.62;100.00;100679.69;107677;1253;72717;-68
2023/05/11 05:27:20;;;;;;;9.80;8.80;;;;;;;13.66;100.00;100684.14;106259;1257;60337;-68
2023/05/11 05:29:46;;;;;;;13.80;12.20;;;;;;;13.74;100.00;100681.40;106458;1253;60980;-68
2023/05/11 05:32:13;;;;;;;10.80;9.70;;;;;;;13.84;100.00;100681.46;107535;1253;72429;-69
2023/05/11 05:34:39;;;;;;;11.40;10.20;;;;;;;13.92;100.00;100685.08;106534;1256;60440;-68
2023/05/11 05:37:06;;;;;;;10.90;9.60;;;;;;;14.00;100.00;100685.20;107108;1253;60449;-68
2023/05/11 05:39:32;;;;;;;11.90;10.30;;;;;;;14.05;100.00;100688.55;107621;1256;59298;-69
2023/05/11 05:41:59;;;;;;;11.80;10.10;;;;;;;14.13;100.00;100693.05;108425;1253;60000;-70
2023/05/11 05:44:25;;;;;;;11.40;10.10;;;;;;;14.20;100.00;100697.31;106686;1255;60545;-68
2023/05/11 05:46:51;;;;;;;12.90;10.70;;;;;;;14.26;100.00;100691.18;106259;1253;60442;-67
2023/05/11 05:49:18;;;;;;;11.20;10.00;;;;;;;14.31;100.00;100695.71;106285;1253;61076;-68
2023/05/11 05:51:45;;;;;;;11.30;10.10;;;;;;;14.34;100.00;100696.84;107635;1253;59321;-67
2023/05/11 05:54:12;;;;;;;12.70;11.40;;;;;;;14.33;100.00;100700.08;106451;1253;60487;-70
2023/05/11 05:56:39;;;;;;;12.20;11.00;;;;;;;14.28;99.97;100702.64;106277;1254;72706;-68
2023/05/11 05:59:09;;;;;;;11.50;10.30;;;;;;;14.23;99.90;100707.80;108717;1253;70297;-69
2023/05/11 06:01:40;;;;;;;12.20;10.90;;;;;;;14.18;99.99;100709.61;106512;1253;71937;-69
2023/05/11 06:04:06;;;;;;;12.20;10.80;;;;;;;14.18;100.00;100710.31;106398;1253;60441;-69
2023/05/11 06:06:33;;;;;;;12.50;10.80;;;;;;;14.15;100.00;100711.70;106366;1253;60431;-71
2023/05/11 06:09:00;;;;;;;12.40;11.20;;;;;;;14.09;100.00;100713.80;107051;1253;59329;-70
2023/05/11 06:11:26;;;;;;;12.10;10.80;;;;;;;14.09;100.00;100712.66;107098;1253;60454;-68
2023/05/11 06:13:53;;;;;;;13.00;11.60;;;;;;;14.04;100.00;100714.98;106627;1253;70554;-69
2023/05/11 06:16:20;;;;;;;12.80;11.40;;;;;;;14.01;100.00;100715.94;108224;1253;62090;-69
2023/05/11 06:18:47;;;;;;;13.40;11.80;;;;;;;13.97;100.00;100716.86;107433;1256;60617;-69
2023/05/11 06:21:13;;;;;;;14.70;12.60;;;;;;;13.97;100.00;100718.09;106442;1253;71417;-71
2023/05/11 06:23:42;;;;;;;14.40;12.90;;;;;;;14.00;100.00;100715.73;106226;1253;60339;-69
2023/05/11 06:26:10;;;;;;;16.10;13.50;;;;;;;14.06;100.00;100718.02;106607;1253;72704;-69
2023/05/11 06:28:37;;;;;;;14.40;12.90;;;;;;;14.13;100.00;100713.34;107449;1253;60788;-72
2023/05/11 06:31:04;;;;;;;16.00;13.50;;;;;;;14.20;100.00;100714.79;106437;1254;60544;-70
2023/05/11 06:33:31;;;;;;;15.60;13.80;;;;;;;14.22;100.00;100710.42;107500;1253;58786;-68
2023/05/11 06:35:58;;;;;;;18.80;15.20;;;;;;;14.25;100.00;100711.75;108218;1253;71637;-68
2023/05/11 06:38:24;;;;;;;17.10;14.10;;;;;;;14.35;100.00;100709.66;107020;1254;60469;-71
2023/05/11 06:40:52;;;;;;;18.30;15.20;;;;;;;14.41;100.00;100709.14;106410;1254;60550;-70
2023/05/11 06:43:18;;;;;;;17.80;14.70;;;;;;;14.47;100.00;100710.02;106344;1253;61788;-70
2023/05/11 06:45:45;;;;;;;18.10;14.70;;;;;;;14.54;100.00;100705.59;106459;1255;72768;-69
2023/05/11 06:48:12;;;;;;;17.10;14.00;;;;;;;14.62;100.00;100705.91;107448;1255;69972;-70
2023/05/11 06:50:39;;;;;;;20.50;15.20;;;;;;;14.70;100.00;100700.63;107257;1253;74123;-69
2023/05/11 06:53:06;;;;;;;18.20;14.60;;;;;;;14.78;100.00;100708.38;106764;1253;61754;-71
2023/05/11 06:55:33;;;;;;;18.00;14.80;;;;;;;14.80;100.00;100706.41;108148;1253;60445;-68
2023/05/11 06:58:00;;;;;;;17.90;14.20;;;;;;;14.77;99.90;100707.42;107580;1253;74558;-74
2023/05/11 07:00:26;;;;;;;17.10;14.10;;;;;;;14.73;99.88;100705.04;106195;1253;69611;-71
2023/05/11 07:02:53;;;;;;;17.00;13.70;;;;;;;14.67;99.79;100709.71;106133;1253;60550;-70
2023/05/11 07:05:20;;;;;;;17.10;14.10;;;;;;;14.65;100.00;100712.33;106637;1253;60442;-71
2023/05/11 07:07:46;;;;;;;18.00;14.40;;;;;;;14.63;100.00;100709.73;107033;1254;61031;-70
2023/05/11 07:10:13;;;;;;;17.90;14.60;;;;;;;14.64;100.00;100711.75;107536;1253;72639;-69
2023/05/11 07:12:39;;;;;;;17.20;14.80;;;;;;;14.68;100.00;100709.14;107412;1253;72898;-69
2023/05/11 07:15:06;;;;;;;16.40;14.20;;;;;;;14.72;100.00;100709.88;107065;1253;72956;-70
2023/05/11 07:17:33;;;;;;;16.90;14.00;;;;;;;14.73;100.00;100709.80;106655;1253;61061;-71
2023/05/11 07:19:59;;;;;;;17.60;14.40;;;;;;;14.72;100.00;100708.60;106424;1253;60524;-70
2023/05/11 07:22:26;;;;;;;17.30;14.30;;;;;;;14.71;100.00;100711.52;106539;1253;73557;-67
2023/05/11 07:24:53;;;;;;;16.60;14.50;;;;;;;14.73;100.00;100710.82;106918;1253;60411;-69
2023/05/11 07:27:20;;;;;;;15.80;13.90;;;;;;;14.73;100.00;100716.82;106362;1253;60477;-71
2023/05/11 07:29:46;;;;;;;17.30;13.80;;;;;;;14.75;100.00;100714.11;107504;1257;60456;-69
2023/05/11 07:32:13;;;;;;;17.00;13.80;;;;;;;14.78;100.00;100716.92;107226;1253;60544;-74
2023/05/11 07:34:40;;;;;;;28.60;20.30;;;;;;;14.76;100.00;100718.15;106376;1259;73712;-69
2023/05/11 07:37:07;;;;;;;15.70;13.60;;;;;;;14.76;99.99;100717.00;107419;1254;71172;-68
2023/05/11 07:39:33;;;;;;;16.90;13.80;;;;;;;14.74;99.94;100717.16;106811;1253;72659;-70
2023/05/11 07:42:00;;;;;;;16.50;13.40;;;;;;;14.71;99.90;100715.55;106730;1255;61088;-69
2023/05/11 07:44:27;;;;;;;17.00;13.70;;;;;;;14.74;100.00;100717.77;106081;1253;60482;-68
2023/05/11 07:46:53;;;;;;;15.90;13.50;;;;;;;14.79;100.00;100716.95;106413;1253;60822;-70
2023/05/11 07:49:20;;;;;;;16.60;12.80;;;;;;;14.84;100.00;100717.55;107998;1253;71215;-68
2023/05/11 07:52:00;;;;;;;15.70;12.90;;;;;;;14.84;100.00;100719.12;106567;1253;73096;-69
2023/05/11 07:54:27;;;;;;;15.60;13.10;;;;;;;14.84;100.00;100721.54;107356;1253;60913;-70
2023/05/11 07:56:54;;;;;;;15.20;12.40;;;;;;;14.85;99.99;100723.46;107152;1253;59238;-70
2023/05/11 07:59:20;;;;;;;15.20;12.90;;;;;;;14.87;100.00;100724.95;106885;1253;73857;-69
2023/05/11 08:01:47;;;;;;;16.60;13.70;;;;;;;14.89;100.00;100726.03;106263;1253;68759;-68
2023/05/11 08:04:14;;;;;;;15.30;12.80;;;;;;;14.90;99.98;100725.38;106568;1253;72415;-68
2023/05/11 08:06:40;;;;;;;15.10;12.70;;;;;;;14.94;100.00;100727.56;106347;1253;60638;-68
2023/05/11 08:09:07;;;;;;;13.70;11.80;;;;;;;14.96;100.00;100725.30;108250;1253;60541;-68
2023/05/11 08:11:33;;;;;;;13.50;11.50;;;;;;;14.97;100.00;100723.77;106456;1257;60448;-71
2023/05/11 08:14:00;;;;;;;14.80;12.00;;;;;;;14.97;99.94;100727.11;108119;1253;58231;-72
2023/05/11 08:16:27;;;;;;;12.80;11.30;;;;;;;14.96;99.70;100730.85;106635;1253;71412;-71
2023/05/11 08:18:53;;;;;;;13.00;11.30;;;;;;;14.96;99.65;100729.23;106164;1258;60585;-69
2023/05/11 08:21:20;;;;;;;13.80;11.60;;;;;;;15.01;99.95;100732.54;106262;1253;60547;-69
2023/05/11 08:23:46;;;;;;;11.70;10.00;;;;;;;15.06;99.99;100733.23;106091;1256;241198;-68
2023/05/11 08:26:14;;;;;;;10.70;9.20;;;;;;;15.08;99.64;100732.55;107951;1256;60960;-70
2023/05/11 08:28:40;;;;;;;8.50;7.60;;;;;;;15.04;98.89;100737.56;107396;1254;70378;-69
2023/05/11 08:31:07;;;;;;;7.90;6.70;;;;;;;15.03;98.87;100735.41;108296;1253;60531;-68
2023/05/11 08:33:33;;;;;;;9.00;7.00;;;;;;;15.05;99.07;100735.27;107223;1257;61295;-70
2023/05/11 08:36:05;;;;;;;7.70;6.50;;;;;;;15.15;99.43;100735.27;106976;1253;72834;-70
2023/05/11 08:38:34;;;;;;;8.20;6.50;;;;;;;15.24;99.04;100736.89;105914;1253;71066;-69
2023/05/11 08:41:01;;;;;;;6.80;6.00;;;;;;;15.32;98.66;100733.71;106455;1258;71467;-69
2023/05/11 08:43:29;;;;;;;7.20;5.80;;;;;;;15.43;98.65;100737.38;106514;1253;61051;-69
2023/05/11 08:45:59;;;;;;;7.40;6.20;;;;;;;15.50;98.06;100737.05;107483;1253;60486;-69
2023/05/11 08:48:28;;;;;;;8.10;6.00;;;;;;;15.54;97.42;100737.92;108185;1253;72676;-69
2023/05/11 08:50:54;;;;;;;7.50;6.40;;;;;;;15.57;97.00;100739.56;108065;1253;69970;-69
2023/05/11 08:53:21;;;;;;;6.90;5.40;;;;;;;15.63;97.08;100738.85;107055;1253;72801;-72
2023/05/11 08:55:50;;;;;;;17.80;13.60;;;;;;;15.70;96.54;100739.30;106507;1259;60885;-69
2023/05/11 08:58:21;;;;;;;7.20;5.60;;;;;;;15.79;96.40;100737.30;106487;1253;60548;-70
2023/05/11 09:00:49;;;;;;;5.90;4.70;;;;;;;15.86;95.59;100739.80;105948;1254;73679;-69
2023/05/11 09:03:19;;;;;;;6.80;5.40;;;;;;;15.87;94.16;100739.88;107726;1253;70948;-71
2023/05/11 09:05:46;;;;;;;14.20;10.90;;;;;;;15.88;94.43;100739.80;107638;1253;72682;-69
2023/05/11 09:08:16;;;;;;;6.30;5.40;;;;;;;15.94;94.94;100740.57;107044;1256;61318;-68
2023/05/11 09:10:43;;;;;;;6.40;5.20;;;;;;;16.01;94.95;100738.00;107905;1253;60523;-69
2023/05/11 09:13:10;;;;;;;6.60;5.30;;;;;;;16.08;94.61;100735.42;106496;1253;72669;-69
2023/05/11 09:15:37;;;;;;;6.20;5.40;;;;;;;16.16;94.72;100739.89;106937;1253;69955;-68
2023/05/11 09:18:04;;;;;;;5.80;4.90;;;;;;;16.23;94.71;100739.99;106426;1253;71253;-71
2023/05/11 09:20:32;;;;;;;5.00;4.30;;;;;;;16.25;93.52;100740.85;106659;1253;60780;-70
2023/05/11 09:23:00;;;;;;;6.50;4.20;;;;;;;16.20;93.04;100737.70;107281;1253;60970;-69
2023/05/11 09:25:32;;;;;;;5.40;4.00;;;;;;;16.17;92.95;100737.51;107840;1253;73885;-68
2023/05/11 09:27:59;;;;;;;5.20;4.00;;;;;;;16.08;92.59;100737.40;107515;1253;72238;-70
2023/05/11 09:30:26;;;;;;;4.50;3.40;;;;;;;16.02;92.99;100734.66;107263;1253;72377;-71
2023/05/11 09:33:01;;;;;;;4.40;3.70;;;;;;;15.99;92.99;100737.96;105998;1259;60713;-72
2023/05/11 09:35:33;;;;;;;4.40;3.50;;;;;;;15.93;92.73;100733.81;106477;1253;60496;-68
2023/05/11 09:38:11;;;;;;;4.50;3.60;;;;;;;15.87;93.27;100736.34;106320;1258;74071;-71
2023/05/11 09:40:41;;;;;;;4.40;3.30;;;;;;;15.83;93.21;100735.69;106646;1253;71443;-68
2023/05/11 09:43:20;;;;;;;3.80;3.20;;;;;;;15.80;93.27;100739.33;107855;1253;72443;-70
2023/05/11 09:45:50;;;;;;;5.10;3.60;;;;;;;15.71;92.99;100739.06;107224;1253;60922;-70
2023/05/11 09:48:19;;;;;;;3.70;3.00;;;;;;;15.67;93.42;100739.50;107791;1254;60901;-67
2023/05/11 09:50:48;;;;;;;7.00;5.30;;;;;;;15.63;93.47;100739.71;106167;1257;73915;-75
2023/05/11 09:53:16;;;;;;;4.80;3.80;;;;;;;15.57;93.64;100738.73;106385;1259;70357;-70
2023/05/11 09:55:55;;;;;;;17.60;13.50;;;;;;;15.55;94.18;100737.99;106408;1253;71170;-71
2023/05/11 09:58:22;;;;;;;4.40;3.30;;;;;;;15.62;94.73;100737.95;106363;1253;61771;-70
2023/05/11 10:00:52;;;;;;;4.40;3.10;;;;;;;15.67;94.89;100735.05;107185;1253;61046;-70
2023/05/11 10:03:19;;;;;;;3.50;2.70;;;;;;;15.74;94.74;100736.57;108169;1253;74216;-70
2023/05/11 10:05:59;;;;;;;3.20;2.50;;;;;;;15.75;94.32;100733.53;107323;1253;70783;-70
2023/05/11 10:08:33;;;;;;;3.80;3.00;;;;;;;15.75;93.99;100735.90;106859;1253;71746;-69
2023/05/11 10:11:01;;;;;;;5.20;3.90;;;;;;;15.78;94.51;100738.05;105848;1253;60490;-70
2023/05/11 10:13:31;;;;;;;4.50;3.40;;;;;;;15.78;94.49;100736.81;106429;1258;60436;-69
2023/05/11 10:16:02;;;;;;;4.20;3.20;;;;;;;15.75;94.24;100735.83;106358;1253;73386;-68
2023/05/11 10:18:31;;;;;;;5.20;3.50;;;;;;;15.70;94.13;100734.11;107549;1253;71346;-70
2023/05/11 10:20:58;;;;;;;4.20;3.40;;;;;;;15.69;94.54;100731.41;107309;1258;70885;-67
2023/05/11 10:23:25;;;;;;;4.00;3.30;;;;;;;15.69;94.54;100728.23;108396;1253;60016;-70
2023/05/11 10:25:53;;;;;;;4.30;3.30;;;;;;;15.63;94.09;100728.48;106742;1253;59925;-69
2023/05/11 10:28:21;;;;;;;4.20;3.50;;;;;;;15.59;94.65;100726.06;106289;1253;72332;-70
2023/05/11 10:30:48;;;;;;;4.20;3.40;;;;;;;15.60;95.21;100725.41;106154;1253;71021;-71
2023/05/11 10:33:16;;;;;;;4.60;3.80;;;;;;;15.59;95.46;100721.17;105760;1253;70731;-71
2023/05/11 10:35:44;;;;;;;7.10;4.30;;;;;;;15.59;95.43;100720.48;106931;1255;60753;-68
2023/05/11 10:38:12;;;;;;;5.90;4.40;;;;;;;15.52;95.10;100721.05;108053;1258;60803;-69
2023/05/11 10:40:42;;;;;;;5.40;3.90;;;;;;;15.45;95.20;100720.05;108303;1256;73066;-68
2023/05/11 10:43:28;;;;;;;6.30;3.90;;;;;;;15.38;95.51;100715.63;106895;1253;70684;-70
2023/05/11 10:46:07;;;;;;;6.70;4.10;;;;;;;15.31;95.83;100717.85;106136;1253;70908;-68
2023/05/11 10:49:11;;;;;;;6.70;4.20;;;;;;;15.26;96.22;100719.73;106335;1253;62009;-68
2023/05/11 10:51:42;;;;;;;7.50;5.10;;;;;;;15.23;96.70;100721.10;106447;1253;60361;-69
2023/05/11 10:54:32;;;;;;;6.10;4.00;;;;;;;15.21;97.04;100714.72;106301;1258;72674;-70
2023/05/11 10:57:14;;;;;;;6.00;4.20;;;;;;;15.13;97.00;100721.73;107525;1253;70748;-69
2023/05/11 10:59:54;;;;;;;5.80;3.90;;;;;;;15.08;97.59;100717.13;108236;1253;72525;-69
2023/05/11 11:02:21;;;;;;;6.80;4.40;;;;;;;15.04;97.81;100718.98;107101;1253;61905;-69
2023/05/11 11:04:51;;;;;;;5.30;3.70;;;;;;;15.04;98.20;100718.66;106324;1254;60502;-69
2023/05/11 11:07:18;;;;;;;6.30;4.30;;;;;;;15.07;98.52;100717.91;106024;1253;72388;-70
2023/05/11 11:10:05;;;;;;;7.50;5.60;;;;;;;15.09;98.55;100715.61;106548;1258;70269;-71